PWSweather.com
Personal Weather Stations
Station Observations
KKYCRABO2
Cedar Creek Lake 840 Ky. Hwy. 39 N, Crab Orchard, KY 40419

Cedar Creek Lake 840 Ky. Hwy. 39 NCrab Orchard, KY 40419

Lat: 37.4736234544238, Lon: -84.5120286941528

Elevation: 952

Station Type: TYCON Power TP1080WC Pro

http://kbweather.net/

Latest ConditionsUpdated 4:10:02 AM EST Monday, Nov 24, 2014
Currently Today's Max Today's Min Today's Average
Temperature 60.3°F15.7°C 61.7°F16.5°C 58.8°F14.9°C 60.3°F15.7°C
Dew Point 60.0°F15.6°C 61.4°F16.3°C 58.6°F14.8°C 60.1°F15.6°C
Winds 2.2 mph S3.5 kmh S 7.6 mph WSW12.2 kmh WSW - 4.7 mph 7.6 kmh
Wind Gusts 7.6 mph12.2 kmh 16.8 mph27.0 kmh - -
Humidity 99% 99% 99% 99%
Pressure 29.49 in998.6 mb 29.50 in999.0 mb 29.46 in997.6 mb -
Precipitation - 0.01 in0.3 mm - -
Hour Temp Dew Point Humidity Winds Wind Gusts Pressure Precip Precip Rate Daily Precip Total
04:10 AM 60.3°F15.7°C 60.0°F15.6°C 99% 2.2 mph S3.5 kmh S 7.6 mph12.2 kmh 29.49 in998.6 mb 0.00 in0.0 mm 0.00 in/hr0.0 mm/hr 0.01 in0.3 mm
04:05 AM 60.6°F15.9°C 60.4°F15.8°C 99% 0.7 mph S1.1 kmh S 5.4 mph8.7 kmh 29.49 in998.6 mb 0.00 in0.0 mm 0.00 in/hr0.0 mm/hr 0.01 in0.3 mm
04:00 AM 60.6°F15.9°C 60.4°F15.8°C 99% 0.7 mph WSW1.1 kmh WSW 8.3 mph13.4 kmh 29.49 in998.6 mb 0.00 in0.0 mm 0.00 in/hr0.0 mm/hr 0.01 in0.3 mm
03:55 AM 61.0°F16.1°C 60.7°F15.9°C 99% 1.6 mph WNW2.6 kmh WNW 8.3 mph13.4 kmh 29.49 in998.6 mb 0.00 in0.0 mm 0.00 in/hr0.0 mm/hr 0.01 in0.3 mm
03:50 AM 61.3°F16.3°C 61.1°F16.2°C 99% 1.6 mph WSW2.6 kmh WSW 15.2 mph24.5 kmh 29.50 in999.0 mb 0.00 in0.0 mm 0.00 in/hr0.0 mm/hr 0.01 in0.3 mm
03:45 AM 61.5°F16.4°C 61.3°F16.3°C 99% 1.6 mph WSW2.6 kmh WSW 15.2 mph24.5 kmh 29.50 in999.0 mb 0.00 in0.0 mm 0.00 in/hr0.0 mm/hr 0.01 in0.3 mm
03:40 AM 61.7°F16.5°C 61.4°F16.3°C 99% 3.1 mph WSW5.0 kmh WSW 13.0 mph20.9 kmh 29.50 in999.0 mb 0.00 in0.0 mm 0.00 in/hr0.0 mm/hr 0.01 in0.3 mm
03:35 AM 61.5°F16.4°C 61.3°F16.3°C 99% 4.5 mph WSW7.2 kmh WSW 14.5 mph23.3 kmh 29.50 in999.0 mb 0.00 in0.0 mm 0.00 in/hr0.0 mm/hr 0.01 in0.3 mm
03:30 AM 61.5°F16.4°C 61.3°F16.3°C 99% 3.1 mph W5.0 kmh W 14.5 mph23.3 kmh 29.50 in999.0 mb 0.00 in0.0 mm 0.00 in/hr0.0 mm/hr 0.01 in0.3 mm
03:25 AM 61.5°F16.4°C 61.3°F16.3°C 99% 4.5 mph W7.2 kmh W 13.6 mph21.9 kmh 29.50 in999.0 mb 0.00 in0.0 mm 0.00 in/hr0.0 mm/hr 0.01 in0.3 mm
03:20 AM 61.3°F16.3°C 61.1°F16.2°C 99% 6.0 mph WSW9.7 kmh WSW 13.6 mph21.9 kmh 29.50 in999.0 mb 0.00 in0.0 mm 0.00 in/hr0.0 mm/hr 0.01 in0.3 mm
03:15 AM 61.3°F16.3°C 61.1°F16.2°C 99% 4.5 mph WSW7.2 kmh WSW 15.2 mph24.5 kmh 29.50 in999.0 mb 0.00 in0.0 mm 0.00 in/hr0.0 mm/hr 0.01 in0.3 mm
03:10 AM 61.2°F16.2°C 60.9°F16.1°C 99% 6.0 mph W9.7 kmh W 15.2 mph24.5 kmh 29.50 in999.0 mb 0.00 in0.0 mm 0.00 in/hr0.0 mm/hr 0.01 in0.3 mm
03:05 AM 60.8°F16.0°C 60.5°F15.8°C 99% 5.4 mph W8.7 kmh W 13.6 mph21.9 kmh 29.50 in999.0 mb 0.00 in0.0 mm 0.00 in/hr0.0 mm/hr 0.01 in0.3 mm
03:00 AM 60.8°F16.0°C 60.5°F15.8°C 99% 5.4 mph W8.7 kmh W 13.6 mph21.9 kmh 29.50 in999.0 mb 0.00 in0.0 mm 0.00 in/hr0.0 mm/hr 0.01 in0.3 mm
02:55 AM 60.6°F15.9°C 60.4°F15.8°C 99% 4.5 mph WNW7.2 kmh WNW 9.8 mph15.8 kmh 29.50 in999.0 mb 0.00 in0.0 mm 0.00 in/hr0.0 mm/hr 0.01 in0.3 mm
02:50 AM 60.6°F15.9°C 60.4°F15.8°C 99% 5.4 mph WSW8.7 kmh WSW 9.8 mph15.8 kmh 29.50 in999.0 mb 0.00 in0.0 mm 0.00 in/hr0.0 mm/hr 0.01 in0.3 mm
02:45 AM 60.4°F15.8°C 60.2°F15.7°C 99% 5.4 mph WSW8.7 kmh WSW 9.8 mph15.8 kmh 29.49 in998.6 mb 0.00 in0.0 mm 0.00 in/hr0.0 mm/hr 0.01 in0.3 mm
02:40 AM 60.6°F15.9°C 60.4°F15.8°C 99% 3.1 mph W5.0 kmh W 9.8 mph15.8 kmh 29.50 in999.0 mb 0.00 in0.0 mm 0.00 in/hr0.0 mm/hr 0.01 in0.3 mm
02:35 AM 60.6°F15.9°C 60.4°F15.8°C 99% 3.8 mph W6.1 kmh W 10.7 mph17.2 kmh 29.50 in999.0 mb 0.00 in0.0 mm 0.00 in/hr0.0 mm/hr 0.01 in0.3 mm
02:30 AM 60.6°F15.9°C 60.4°F15.8°C 99% 3.8 mph W6.1 kmh W 13.0 mph20.9 kmh 29.50 in999.0 mb 0.00 in0.0 mm 0.00 in/hr0.0 mm/hr 0.01 in0.3 mm
02:25 AM 60.6°F15.9°C 60.4°F15.8°C 99% 2.2 mph WSW3.5 kmh WSW 13.0 mph20.9 kmh 29.50 in999.0 mb 0.01 in0.3 mm 0.00 in/hr0.0 mm/hr 0.01 in0.3 mm
02:20 AM 60.6°F15.9°C 60.4°F15.8°C 99% 6.0 mph WSW9.7 kmh WSW 13.0 mph20.9 kmh 29.50 in999.0 mb 0.01 in0.3 mm 0.00 in/hr0.0 mm/hr 0.01 in0.3 mm
02:15 AM 60.8°F16.0°C 60.5°F15.8°C 99% 3.8 mph WSW6.1 kmh WSW 13.6 mph21.9 kmh 29.50 in999.0 mb 0.01 in0.3 mm 0.00 in/hr0.0 mm/hr 0.01 in0.3 mm
02:10 AM 61.0°F16.1°C 60.7°F15.9°C 99% 3.8 mph W6.1 kmh W 13.6 mph21.9 kmh 29.50 in999.0 mb 0.01 in0.3 mm 0.00 in/hr0.0 mm/hr 0.01 in0.3 mm
02:05 AM 61.0°F16.1°C 60.7°F15.9°C 99% 6.0 mph W9.7 kmh W 12.1 mph19.5 kmh 29.50 in999.0 mb 0.01 in0.3 mm 0.00 in/hr0.0 mm/hr 0.01 in0.3 mm
02:00 AM 61.0°F16.1°C 60.7°F15.9°C 99% 6.0 mph WNW9.7 kmh WNW 12.1 mph19.5 kmh 29.50 in999.0 mb 0.01 in0.3 mm 0.00 in/hr0.0 mm/hr 0.01 in0.3 mm
01:55 AM 60.8°F16.0°C 60.5°F15.8°C 99% 6.9 mph WNW11.1 kmh WNW 14.5 mph23.3 kmh 29.50 in999.0 mb 0.01 in0.3 mm 0.00 in/hr0.0 mm/hr 0.01 in0.3 mm
01:50 AM 60.6°F15.9°C 60.4°F15.8°C 99% 6.0 mph WNW9.7 kmh WNW 14.5 mph23.3 kmh 29.50 in999.0 mb 0.01 in0.3 mm 0.00 in/hr0.0 mm/hr 0.01 in0.3 mm
01:45 AM 60.8°F16.0°C 60.5°F15.8°C 99% 3.8 mph WNW6.1 kmh WNW 14.5 mph23.3 kmh 29.49 in998.6 mb 0.01 in0.3 mm 0.00 in/hr0.0 mm/hr 0.01 in0.3 mm
01:40 AM 60.6°F15.9°C 60.4°F15.8°C 99% 5.4 mph WNW8.7 kmh WNW 9.8 mph15.8 kmh 29.50 in999.0 mb 0.01 in0.3 mm 0.00 in/hr0.0 mm/hr 0.01 in0.3 mm
01:35 AM 60.4°F15.8°C 60.2°F15.7°C 99% 6.9 mph WSW11.1 kmh WSW 14.5 mph23.3 kmh 29.49 in998.6 mb 0.01 in0.3 mm 0.00 in/hr0.0 mm/hr 0.01 in0.3 mm
01:30 AM 60.4°F15.8°C 60.2°F15.7°C 99% 6.9 mph WSW11.1 kmh WSW 14.5 mph23.3 kmh 29.50 in999.0 mb 0.01 in0.3 mm 0.12 in/hr3.0 mm/hr 0.01 in0.3 mm
01:25 AM 60.3°F15.7°C 60.0°F15.6°C 99% 6.0 mph W9.7 kmh W 14.5 mph23.3 kmh 29.49 in998.6 mb 0.00 in0.0 mm 0.00 in/hr0.0 mm/hr 0.00 in0.0 mm
01:20 AM 60.3°F15.7°C 60.0°F15.6°C 99% 6.0 mph W9.7 kmh W 14.5 mph23.3 kmh 29.50 in999.0 mb 0.00 in0.0 mm 0.00 in/hr0.0 mm/hr 0.00 in0.0 mm
01:15 AM 60.1°F15.6°C 59.8°F15.4°C 99% 4.5 mph WNW7.2 kmh WNW 13.0 mph20.9 kmh 29.49 in998.6 mb 0.00 in0.0 mm 0.00 in/hr0.0 mm/hr 0.00 in0.0 mm
01:10 AM 60.1°F15.6°C 59.8°F15.4°C 99% 4.5 mph W7.2 kmh W 13.0 mph20.9 kmh 29.49 in998.6 mb 0.00 in0.0 mm 0.00 in/hr0.0 mm/hr 0.00 in0.0 mm
01:05 AM 59.7°F15.4°C 59.5°F15.3°C 99% 6.0 mph W9.7 kmh W 13.0 mph20.9 kmh 29.49 in998.6 mb 0.00 in0.0 mm 0.00 in/hr0.0 mm/hr 0.00 in0.0 mm
01:00 AM 59.5°F15.3°C 59.3°F15.2°C 99% 5.4 mph W8.7 kmh W 16.8 mph27.0 kmh 29.49 in998.6 mb 0.00 in0.0 mm 0.00 in/hr0.0 mm/hr 0.00 in0.0 mm
12:55 AM 59.5°F15.3°C 59.3°F15.2°C 99% 4.5 mph WNW7.2 kmh WNW 16.8 mph27.0 kmh 29.49 in998.6 mb 0.00 in0.0 mm 0.00 in/hr0.0 mm/hr 0.00 in0.0 mm
12:50 AM 59.2°F15.1°C 58.9°F14.9°C 99% 6.0 mph WNW9.7 kmh WNW 13.6 mph21.9 kmh 29.49 in998.6 mb 0.00 in0.0 mm 0.00 in/hr0.0 mm/hr 0.00 in0.0 mm
12:45 AM 59.2°F15.1°C 58.9°F14.9°C 99% 3.1 mph W5.0 kmh W 13.6 mph21.9 kmh 29.48 in998.3 mb 0.00 in0.0 mm 0.00 in/hr0.0 mm/hr 0.00 in0.0 mm
12:40 AM 59.0°F15.0°C 58.7°F14.8°C 99% 3.8 mph W6.1 kmh W 13.0 mph20.9 kmh 29.49 in998.6 mb 0.00 in0.0 mm 0.00 in/hr0.0 mm/hr 0.00 in0.0 mm
12:35 AM 59.0°F15.0°C 58.7°F14.8°C 99% 6.9 mph W11.1 kmh W 13.0 mph20.9 kmh 29.48 in998.3 mb 0.00 in0.0 mm 0.00 in/hr0.0 mm/hr 0.00 in0.0 mm
12:30 AM 59.0°F15.0°C 58.7°F14.8°C 99% 6.9 mph W11.1 kmh W 13.0 mph20.9 kmh 29.48 in998.3 mb 0.00 in0.0 mm 0.00 in/hr0.0 mm/hr 0.00 in0.0 mm
12:25 AM 59.0°F15.0°C 58.7°F14.8°C 99% 6.0 mph NW9.7 kmh NW 13.6 mph21.9 kmh 29.48 in998.3 mb 0.00 in0.0 mm 0.00 in/hr0.0 mm/hr 0.00 in0.0 mm
12:20 AM 59.0°F15.0°C 58.7°F14.8°C 99% 4.5 mph NW7.2 kmh NW 13.6 mph21.9 kmh 29.48 in998.3 mb 0.00 in0.0 mm 0.00 in/hr0.0 mm/hr 0.00 in0.0 mm
12:15 AM 59.0°F15.0°C 58.7°F14.8°C 99% 6.0 mph NW9.7 kmh NW 13.6 mph21.9 kmh 29.48 in998.3 mb 0.00 in0.0 mm 0.00 in/hr0.0 mm/hr 0.00 in0.0 mm
12:10 AM 58.8°F14.9°C 58.6°F14.8°C 99% 5.4 mph W8.7 kmh W 13.6 mph21.9 kmh 29.47 in998.0 mb 0.00 in0.0 mm 0.00 in/hr0.0 mm/hr 0.00 in0.0 mm
12:05 AM 58.8°F14.9°C 58.6°F14.8°C 99% 6.9 mph WSW11.1 kmh WSW 13.6 mph21.9 kmh 29.47 in998.0 mb 0.00 in0.0 mm 0.00 in/hr0.0 mm/hr 0.00 in0.0 mm
12:00 AM 58.8°F14.9°C 58.6°F14.8°C 99% 7.6 mph WSW12.2 kmh WSW 13.6 mph21.9 kmh 29.46 in997.6 mb 0.00 in0.0 mm 0.00 in/hr0.0 mm/hr 0.00 in0.0 mm